Latest Weather Observations for Scotts Peak

IDT60801

Issued at 6:05 am EST Friday 22 August 2014 (issued every 30 minutes, with the page automatically refreshed every 10 minutes)

About weather observations | Map of weather stations | Latest weather observations for TAS | Other Formats
Station Details ID: 097083 Name: SCOTTS PEAK DAM Lat: -43.04 Lon: 146.27 Height: 408.0 m
Data from the previous 72 hours. | See also: Recent months at Scotts Peak
Date/Time
EST
Temp
°C
App
Temp
°C
Dew
Point
Rel
Hum
%
Delta-T
°C
Wind Press
QNH
hPa
Press
MSL
hPa
Rain
since 9 am
mm
Dir
 
Spd
km/h
Gust
km/h
Spd
kts
Gust
kts
22/06:00am 3.3 -0.3 3.2 99 0.0 SE 11 13 6 7 - - 0.0
22/05:30am 3.6 0.1 3.5 99 0.0 SE 11 13 6 7 - - 0.0
22/05:00am 3.8 0.0 3.7 99 0.0 SSE 13 15 7 8 - - 0.0
22/04:30am 3.9 0.1 3.8 99 0.0 S 13 15 7 8 - - 0.0
22/04:00am 3.7 -0.2 3.6 99 0.0 SE 13 15 7 8 - - 0.0
22/03:30am 3.5 0.0 3.4 99 0.0 SSE 11 15 6 8 - - 0.0
22/03:00am 3.7 -0.2 3.6 99 0.0 SE 13 15 7 8 - - 0.0
22/02:30am 4.1 0.7 4.0 99 0.0 SSE 11 15 6 8 - - 0.0
22/02:00am 3.9 0.5 3.8 99 0.0 SSE 11 15 6 8 - - 0.0
22/01:30am 4.2 0.4 3.9 98 0.1 SSE 13 15 7 8 - - 0.0
22/01:00am 4.7 1.4 4.4 98 0.1 SSE 11 13 6 7 - - 0.0
22/12:30am 4.9 2.0 4.5 97 0.2 SSE 9 11 5 6 - - 0.0
22/12:00am 4.9 2.4 4.5 97 0.2 ESE 7 9 4 5 - - 0.0
 
Date/Time
EST
Temp
°C
App
Temp
°C
Dew
Point
Rel
Hum
%
Delta-T
°C
Wind Press
QNH
hPa
Press
MSL
hPa
Rain
since 9 am
mm
Dir
 
Spd
km/h
Gust
km/h
Spd
kts
Gust
kts
21/11:30pm 4.8 1.4 4.2 96 0.3 SE 11 13 6 7 - - 0.0
21/11:00pm 5.5 2.2 4.8 95 0.3 ESE 11 13 6 7 - - 0.0
21/10:30pm 5.3 2.3 4.3 93 0.4 ESE 9 13 5 7 - - 0.0
21/10:00pm 5.5 2.5 4.0 90 0.7 ESE 9 11 5 6 - - 0.0
21/09:30pm 6.3 4.0 4.6 89 0.8 SSE 6 9 3 5 - - 0.0
21/09:00pm 6.7 4.4 4.7 87 0.9 E 6 9 3 5 - - 0.0
21/08:30pm 7.0 5.5 5.2 88 0.8 SSW 2 6 1 3 - - 0.0
21/08:00pm 6.9 4.5 4.4 84 1.1 SSW 6 7 3 4 - - 0.0
21/07:30pm 7.3 5.0 4.8 84 1.1 SSW 6 7 3 4 - - 0.0
21/07:00pm 8.0 6.5 4.8 80 1.4 WSW 2 7 1 4 - - 0.0
21/06:30pm 7.9 5.4 4.5 79 1.5 SW 7 9 4 5 - - 0.0
21/06:00pm 8.2 6.6 4.4 77 1.7 WNW 2 6 1 3 - - 0.0
21/05:30pm 9.0 7.6 3.4 68 2.5 CALM 0 6 0 3 - - 0.0
21/05:00pm 11.2 9.7 5.1 66 2.9 NNW 2 6 1 3 - - 0.0
21/04:30pm 12.0 9.7 5.6 65 3.0 NNW 7 9 4 5 - - 0.0
21/04:00pm 12.6 10.1 6.4 66 3.0 NNW 9 13 5 7 - - 0.0
21/03:30pm 14.0 11.3 7.5 65 3.3 NNW 11 13 6 7 - - 0.0
21/03:00pm 13.7 11.0 7.5 66 3.1 NNW 11 13 6 7 - - 0.0
21/02:30pm 13.0 10.3 7.5 69 2.7 NW 11 13 6 7 - - 0.0
21/02:00pm 12.6 10.2 7.1 69 2.7 NNW 9 13 5 7 - - 0.0
21/01:30pm 12.1 9.3 6.8 70 2.6 NNW 11 13 6 7 - - 0.0
21/01:00pm 10.8 8.4 6.9 77 1.9 NNW 9 13 5 7 - - 0.0
21/12:30pm 9.6 6.8 7.0 84 1.3 NNW 11 13 6 7 - - 0.0
21/12:00pm 7.5 4.9 6.3 92 0.6 NW 9 11 5 6 - - 0.0
21/11:30am 5.8 3.4 5.1 95 0.3 NW 7 9 4 5 - - 0.0
21/11:00am 5.6 2.8 5.3 98 0.1 NW 9 11 5 6 - - 0.0
21/10:30am 5.1 2.6 5.0 99 0.0 NW 7 11 4 6 - - 0.0
21/10:00am 5.1 2.6 5.0 99 0.0 NNW 7 11 4 6 - - 0.0
21/09:30am 4.8 2.3 4.7 99 0.0 N 7 11 4 6 - - 0.0
21/09:00am 4.8 2.5 4.7 99 0.0 NNE 6 9 3 5 - - 0.4
21/08:30am 4.1 2.8 4.0 99 0.0 CALM 0 0 0 0 - - 0.4
21/08:00am 4.0 1.0 3.9 99 0.0 E 9 15 5 8 - - 0.4
21/07:30am 3.9 0.8 3.8 99 0.0 NE 9 11 5 6 - - 0.4
21/07:00am 4.0 1.0 3.9 99 0.0 N 9 13 5 7 - - 0.4
21/06:30am 4.1 1.5 4.0 99 0.0 N 7 9 4 5 - - 0.4
21/06:00am 4.2 1.6 4.1 99 0.0 N 7 11 4 6 - - 0.4
21/05:30am 4.3 1.7 4.2 99 0.0 N 7 9 4 5 - - 0.0
21/05:00am 4.1 2.4 4.0 99 0.0 ENE 2 7 1 4 - - 0.0
21/04:30am 4.3 1.7 4.2 99 0.0 N 7 9 4 5 - - 0.0
21/04:00am 4.1 1.6 4.0 99 0.0 N 6 7 3 4 - - 0.0
21/03:30am 4.0 2.7 3.9 99 0.0 CALM 0 0 0 0 - - 0.0
21/03:00am 4.5 2.1 4.4 99 0.0 E 6 7 3 4 - - 0.0
21/02:30am 4.6 2.1 4.5 99 0.0 E 7 9 4 5 - - 0.0
21/02:00am 4.7 2.7 4.6 99 0.0 ESE 4 9 2 5 - - 0.0
21/01:30am 4.6 2.1 4.5 99 0.0 ESE 7 9 4 5 - - 0.0
21/01:00am 4.3 1.3 4.2 99 0.0 ESE 9 11 5 6 - - 0.0
21/12:30am 4.1 1.1 4.0 99 0.0 SE 9 13 5 7 - - 0.0
21/12:00am 3.9 0.8 3.8 99 0.0 SE 9 11 5 6 - - 0.0
 
Date/Time
EST
Temp
°C
App
Temp
°C
Dew
Point
Rel
Hum
%
Delta-T
°C
Wind Press
QNH
hPa
Press
MSL
hPa
Rain
since 9 am
mm
Dir
 
Spd
km/h
Gust
km/h
Spd
kts
Gust
kts
20/11:30pm 3.8 0.3 3.5 98 0.1 ESE 11 11 6 6 - - 0.0
20/11:00pm 3.9 0.8 3.5 97 0.2 SE 9 11 5 6 - - 0.0
20/10:30pm 4.5 1.8 3.8 95 0.3 S 7 7 4 4 - - 0.0
20/10:00pm 5.1 2.7 4.1 93 0.4 SSW 6 7 3 4 - - 0.0
20/09:30pm 5.3 1.5 4.1 92 0.5 WSW 13 15 7 8 - - 0.0
20/09:00pm 5.5 2.2 4.5 93 0.4 W 11 15 6 8 - - 0.0
20/08:30pm 5.4 1.3 4.4 93 0.4 SW 15 20 8 11 - - 0.0
20/08:00pm 5.6 1.5 4.6 93 0.4 SW 15 20 8 11 - - 0.0
20/07:30pm 5.9 1.8 4.5 91 0.6 WSW 15 20 8 11 - - 0.0
20/07:00pm 6.0 1.6 4.8 92 0.5 WSW 17 20 9 11 - - 0.0
20/06:30pm 6.2 1.5 5.0 92 0.5 WSW 19 20 10 11 - - 0.0
20/06:00pm 6.3 3.1 4.9 91 0.6 W 11 17 6 9 - - 0.0
20/05:30pm 6.7 2.8 5.2 90 0.7 WSW 15 20 8 11 - - 0.0
20/05:00pm 7.4 2.8 5.4 87 0.9 WSW 19 20 10 11 - - 0.0
20/04:30pm 8.0 4.5 5.6 85 1.1 W 13 15 7 8 - - 0.0
20/04:00pm 10.2 6.9 6.4 77 1.8 WNW 13 17 7 9 - - 0.0
20/03:30pm 9.1 6.0 5.7 79 1.6 NW 11 17 6 9 - - 0.0
20/03:00pm 10.8 6.7 4.5 65 2.9 NW 15 20 8 11 - - 0.0
20/02:30pm 12.4 9.6 8.7 78 1.9 NNW 13 15 7 8 - - 0.0
20/02:00pm 10.5 6.3 5.9 73 2.2 NW 17 20 9 11 - - 0.0
20/01:30pm 12.8 9.2 8.5 75 2.2 NNW 17 20 9 11 - - 0.0
20/01:00pm 12.0 8.3 8.1 77 2.0 NW 17 19 9 10 - - 0.0
20/12:30pm 13.1 9.6 10.3 83 1.5 NNW 19 20 10 11 - - 0.0
20/12:00pm 9.9 6.4 8.7 92 0.6 NNW 17 20 9 11 - - 0.0
20/11:30am 8.5 5.1 7.6 94 0.4 NW 15 19 8 10 - - 0.0
20/11:00am 7.6 5.2 5.1 84 1.1 NNW 7 13 4 7 - - 0.0
20/10:30am 8.5 6.0 8.1 97 0.2 NNW 11 19 6 10 - - 0.0
20/10:00am 7.8 5.2 7.7 99 0.0 N 11 13 6 7 - - 0.0
20/09:30am 7.0 4.2 6.9 99 0.0 N 11 15 6 8 - - 0.0
20/09:00am 6.4 2.7 6.3 99 0.0 NNW 15 17 8 9 - - 0.6
20/08:30am 5.5 2.4 5.4 99 0.0 NW 11 13 6 7 - - 0.6
20/08:00am 5.2 1.2 5.1 99 0.0 NNW 15 17 8 9 - - 0.6
20/07:30am 4.8 0.8 4.7 99 0.0 NW 15 15 8 8 - - 0.6
20/07:00am 4.7 1.0 4.6 99 0.0 N 13 13 7 7 - - 0.6
20/06:30am 4.6 0.9 4.5 99 0.0 N 13 15 7 8 - - 0.6
20/06:00am 4.4 0.3 4.3 99 0.0 NNW 15 17 8 9 - - 0.6
20/05:30am 4.7 1.0 4.6 99 0.0 NNW 13 17 7 9 - - 0.6
20/05:00am 4.7 -0.1 4.6 99 0.0 NNW 19 20 10 11 - - 0.6
20/04:30am 4.3 0.2 4.2 99 0.0 NNW 15 19 8 10 - - 0.6
20/04:00am 4.3 0.2 4.2 99 0.0 NNW 15 17 8 9 - - 0.6
20/03:30am 4.8 1.1 4.7 99 0.0 NNW 13 15 7 8 - - 0.6
20/03:00am 4.8 0.8 4.7 99 0.0 NNW 15 17 8 9 - - 0.4
20/02:30am 4.9 0.5 4.8 99 0.0 NNW 17 20 9 11 - - 0.4
20/02:00am 4.9 0.5 4.8 99 0.0 NNW 17 20 9 11 - - 0.4
20/01:30am 4.8 0.8 4.7 99 0.0 NNW 15 17 8 9 - - 0.4
20/01:00am 4.8 1.1 4.7 99 0.0 NW 13 15 7 8 - - 0.4
20/12:30am 4.3 0.2 4.2 99 0.0 NNW 15 17 8 9 - - 0.4
20/12:00am 4.7 1.0 4.6 99 0.0 NNW 13 17 7 9 - - 0.4
 
Date/Time
EST
Temp
°C
App
Temp
°C
Dew
Point
Rel
Hum
%
Delta-T
°C
Wind Press
QNH
hPa
Press
MSL
hPa
Rain
since 9 am
mm
Dir
 
Spd
km/h
Gust
km/h
Spd
kts
Gust
kts
19/11:30pm 4.5 1.2 4.4 99 0.0 NW 11 15 6 8 - - 0.4
19/11:00pm 4.3 -0.2 4.2 99 0.0 NW 17 19 9 10 - - 0.4
19/10:30pm 4.0 -1.1 3.9 99 0.0 NW 20 24 11 13 - - 0.4
19/10:00pm 4.3 -0.8 4.0 98 0.1 NNW 20 22 11 12 - - 0.4
19/09:30pm 4.5 0.8 4.2 98 0.1 NW 13 15 7 8 - - 0.4
19/09:00pm 4.6 0.9 4.5 99 0.0 NW 13 19 7 10 - - 0.2
19/08:30pm 4.0 -0.6 3.7 98 0.1 NW 17 20 9 11 - - 0.2
19/08:00pm 3.8 -0.1 3.2 96 0.3 NNW 13 15 7 8 - - 0.2
19/07:30pm 3.9 0.0 3.2 95 0.3 NNW 13 15 7 8 - - 0.2
19/07:00pm 4.6 1.1 3.7 94 0.4 NW 11 20 6 11 - - 0.2
19/06:30pm 5.0 -0.4 4.3 95 0.3 NW 22 26 12 14 - - 0.2
19/06:00pm 5.3 0.3 3.6 89 0.7 WNW 19 24 10 13 - - 0.2
19/05:30pm 5.3 0.2 4.1 92 0.5 NW 20 24 11 13 - - 0.2
19/05:00pm 5.9 0.0 4.1 88 0.8 WNW 24 32 13 17 - - 0.2
19/04:30pm 6.1 -0.5 4.4 89 0.7 NW 28 35 15 19 - - 0.2
19/04:00pm 7.0 0.5 4.5 84 1.1 NW 28 32 15 17 - - 0.2
19/03:30pm 9.1 4.0 6.0 81 1.5 NW 22 30 12 16 - - 0.2
19/03:00pm 7.0 1.0 5.5 90 0.7 W 26 39 14 21 - - 0.2
19/02:30pm 8.0 1.9 4.8 80 1.4 NW 26 33 14 18 - - 0.2
19/02:00pm 7.7 2.1 5.5 86 1.0 W 24 33 13 18 - - 0.2
19/01:30pm 7.0 1.1 5.9 93 0.5 W 26 37 14 20 - - 0.2
19/01:00pm 7.5 2.5 6.6 94 0.4 NW 22 30 12 16 - - 0.2
19/12:30pm 7.5 3.2 6.8 95 0.3 NNW 19 24 10 13 - - 0.2
19/12:00pm 8.4 3.9 5.9 84 1.2 NW 19 26 10 14 - - 0.0
19/11:30am 11.0 6.7 7.9 81 1.5 NNW 20 26 11 14 - - 0.0
19/11:00am 7.0 1.7 6.6 97 0.2 NNW 24 32 13 17 - - 0.0
19/10:30am 6.2 0.2 5.5 95 0.3 NNW 26 30 14 16 - - 0.0
19/10:00am 5.9 1.0 5.3 96 0.3 N 20 26 11 14 - - 0.0
19/09:30am 5.9 0.7 5.6 98 0.1 N 22 26 12 14 - - 0.0
19/09:00am 5.2 -0.1 5.1 99 0.0 N 22 28 12 15 - - 0.2
19/08:30am 4.7 -0.7 4.6 99 0.0 NNW 22 24 12 13 - - 0.2
19/08:00am 4.5 1.6 4.4 99 0.0 NNW 9 13 5 7 - - 0.2
19/07:30am 4.1 1.1 4.0 99 0.0 N 9 13 5 7 - - 0.2
19/07:00am 3.9 0.8 3.8 99 0.0 N 9 13 5 7 - - 0.2
19/06:30am 3.5 -0.8 3.4 99 0.0 N 15 17 8 9 - - 0.2

Other Formats:

Comma delimited format used in spreadsheet applications
http://www.bom.gov.au/fwo/IDT60801/IDT60801.95958.axf

JavaScript Object Notation format (JSON) in row-major order
http://www.bom.gov.au/fwo/IDT60801/IDT60801.95958.json